createdAt,value
2022-12-24T00:02:40.758Z,100.00
2022-12-24T00:07:42.842Z,100.00
2022-12-24T00:12:50.865Z,100.00
2022-12-24T00:17:52.621Z,100.00
2022-12-24T00:22:54.510Z,100.00
2022-12-24T00:27:56.282Z,100.00
2022-12-24T00:32:58.071Z,100.00
2022-12-24T00:37:59.851Z,100.00
2022-12-24T00:43:01.605Z,100.00
2022-12-24T00:48:08.360Z,100.00
2022-12-24T00:53:10.192Z,100.00
2022-12-24T00:58:11.991Z,100.00
2022-12-24T01:03:13.681Z,100.00
2022-12-24T01:08:15.427Z,100.00
2022-12-24T01:13:17.283Z,100.00
2022-12-24T01:18:19.489Z,100.00
2022-12-24T01:23:21.284Z,100.00
2022-12-24T01:28:23.093Z,100.00
2022-12-24T01:33:29.099Z,100.00
2022-12-24T01:38:30.948Z,100.00
2022-12-24T01:43:33.383Z,100.00
2022-12-24T01:49:01.164Z,100.00
2022-12-24T01:54:34.628Z,100.00
2022-12-24T01:59:38.651Z,100.00
2022-12-24T02:04:48.060Z,100.00
2022-12-24T02:09:53.937Z,100.00
2022-12-24T02:14:55.985Z,100.00
2022-12-24T02:20:22.561Z,100.00
2022-12-24T02:25:50.026Z,100.00
2022-12-24T02:31:02.671Z,100.00
2022-12-24T02:36:11.227Z,100.00
2022-12-24T02:41:27.206Z,100.00
2022-12-24T02:46:32.823Z,100.00
2022-12-24T02:51:35.053Z,100.00
2022-12-24T02:56:42.802Z,100.00
2022-12-24T03:01:58.005Z,100.00
2022-12-24T03:07:10.689Z,100.00
2022-12-24T03:12:19.405Z,100.00
2022-12-24T03:17:21.201Z,100.00
2022-12-24T03:22:25.192Z,100.00
2022-12-24T03:27:33.427Z,100.00
2022-12-24T03:32:35.202Z,100.00
2022-12-24T03:37:37.279Z,100.00
2022-12-24T03:42:39.531Z,100.00
2022-12-24T03:47:41.391Z,100.00
2022-12-24T03:52:43.203Z,100.00
2022-12-24T03:57:45.031Z,100.00
2022-12-24T04:02:47.229Z,100.00
2022-12-24T04:07:49.183Z,100.00
2022-12-24T04:12:50.934Z,100.00
2022-12-24T04:17:52.651Z,100.00
2022-12-24T04:22:54.499Z,100.00
2022-12-24T04:27:56.394Z,100.00
2022-12-24T04:32:58.172Z,100.00
2022-12-24T04:38:00.220Z,100.00
2022-12-24T04:43:02.492Z,100.00
2022-12-24T04:48:04.488Z,100.00
2022-12-24T04:53:06.135Z,100.00
2022-12-24T04:58:07.816Z,100.00
2022-12-24T05:03:09.618Z,100.00
2022-12-24T05:08:11.465Z,100.00
2022-12-24T05:13:13.293Z,100.00
2022-12-24T05:18:15.330Z,100.00
2022-12-24T05:23:36.499Z,100.00
2022-12-24T05:28:38.300Z,100.00
2022-12-24T05:33:40.189Z,100.00
2022-12-24T05:38:42.654Z,100.00
2022-12-24T05:43:44.693Z,100.00
2022-12-24T05:48:47.940Z,100.00
2022-12-24T05:53:52.444Z,100.00
2022-12-24T05:58:55.049Z,100.00
2022-12-24T06:03:57.704Z,100.00
2022-12-24T06:08:59.516Z,100.00
2022-12-24T06:14:01.181Z,100.00
2022-12-24T06:19:03.025Z,100.00
2022-12-24T06:24:05.111Z,100.00
2022-12-24T06:29:06.994Z,100.00
2022-12-24T06:34:08.938Z,100.00
2022-12-24T06:39:10.731Z,100.00
2022-12-24T06:44:12.521Z,100.00
2022-12-24T06:49:14.225Z,100.00
2022-12-24T06:54:16.029Z,100.00
2022-12-24T06:59:17.843Z,100.00
2022-12-24T07:04:20.740Z,100.00
2022-12-24T07:09:22.599Z,100.00
2022-12-24T07:14:24.308Z,100.00
2022-12-24T07:19:25.997Z,100.00
2022-12-24T07:24:27.734Z,100.00
2022-12-24T07:29:29.400Z,100.00
2022-12-24T07:34:31.290Z,100.00
2022-12-24T07:39:33.512Z,100.00
2022-12-24T07:44:35.370Z,100.00
2022-12-24T07:49:37.275Z,100.00
2022-12-24T07:54:39.536Z,100.00
2022-12-24T07:59:41.324Z,100.00
2022-12-24T08:04:43.078Z,100.00
2022-12-24T08:09:46.262Z,100.00
2022-12-24T08:14:48.040Z,100.00
2022-12-24T08:19:49.840Z,100.00
2022-12-24T08:24:51.715Z,100.00
2022-12-24T08:29:53.667Z,100.00
2022-12-24T08:34:55.508Z,100.00
2022-12-24T08:39:57.249Z,100.00
2022-12-24T08:44:58.996Z,100.00
2022-12-24T08:50:00.958Z,100.00
2022-12-24T08:55:03.389Z,100.00
2022-12-24T09:00:06.373Z,100.00
2022-12-24T09:05:08.409Z,100.00
2022-12-24T09:10:10.971Z,100.00
2022-12-24T09:15:14.268Z,100.00
2022-12-24T09:20:16.245Z,100.00
2022-12-24T09:25:18.015Z,100.00
2022-12-24T09:30:19.893Z,100.00
2022-12-24T09:35:21.593Z,100.00
2022-12-24T09:40:33.396Z,100.00
2022-12-24T09:45:41.494Z,100.00
2022-12-24T09:51:08.320Z,100.00
2022-12-24T09:56:18.247Z,100.00
2022-12-24T10:01:20.301Z,100.00
2022-12-24T10:06:30.500Z,100.00
2022-12-24T10:11:47.147Z,100.00
2022-12-24T10:17:03.426Z,100.00
2022-12-24T10:22:19.974Z,100.00
2022-12-24T10:27:28.356Z,100.00
2022-12-24T10:32:34.528Z,100.00
2022-12-24T10:37:36.304Z,100.00
2022-12-24T10:42:50.882Z,100.00
2022-12-24T10:47:58.070Z,100.00
2022-12-24T10:53:13.228Z,100.00
2022-12-24T10:58:21.804Z,100.00
2022-12-24T11:03:30.331Z,100.00
2022-12-24T11:08:33.920Z,100.00
2022-12-24T11:13:53.194Z,100.00
2022-12-24T11:18:58.146Z,100.00
2022-12-24T11:24:29.174Z,100.00
2022-12-24T11:29:31.187Z,100.00
2022-12-24T11:34:33.014Z,100.00
2022-12-24T11:39:41.515Z,100.00
2022-12-24T11:44:49.379Z,100.00
2022-12-24T11:49:51.100Z,100.00
2022-12-24T11:55:08.886Z,100.00
2022-12-24T12:00:14.101Z,100.00
2022-12-24T12:05:23.916Z,100.00
2022-12-24T12:10:31.122Z,100.00
2022-12-24T12:15:37.816Z,100.00
2022-12-24T12:20:54.066Z,100.00
2022-12-24T12:26:02.573Z,100.00
2022-12-24T12:31:16.419Z,100.00
2022-12-24T12:36:25.649Z,100.00
2022-12-24T12:41:35.639Z,100.00
2022-12-24T12:46:56.780Z,100.00
2022-12-24T12:52:14.030Z,100.00
2022-12-24T12:57:18.488Z,100.00
2022-12-24T13:02:43.596Z,100.00
2022-12-24T13:08:28.522Z,100.00
2022-12-24T13:14:04.433Z,100.00
2022-12-24T13:19:24.841Z,100.00
2022-12-24T13:24:28.911Z,100.00
2022-12-24T13:29:35.022Z,100.00
2022-12-24T13:34:38.283Z,99.99
2022-12-24T13:40:13.416Z,100.00
2022-12-24T13:45:30.908Z,99.88
2022-12-24T13:50:51.354Z,99.77
2022-12-24T13:55:56.366Z,99.66
2022-12-24T14:01:06.575Z,99.70
2022-12-24T14:06:21.055Z,99.42
2022-12-24T14:11:25.650Z,99.43
2022-12-24T14:16:41.445Z,99.15
2022-12-24T14:22:10.172Z,98.87
2022-12-24T14:27:19.453Z,99.08
2022-12-24T14:32:21.205Z,99.10
2022-12-24T14:37:26.894Z,99.17
2022-12-24T14:42:41.186Z,99.25
2022-12-24T14:48:17.104Z,99.50
2022-12-24T14:53:24.794Z,99.51
2022-12-24T14:58:33.838Z,99.60
2022-12-24T15:03:35.677Z,99.61
2022-12-24T15:08:43.921Z,99.58
2022-12-24T15:13:49.311Z,99.55
2022-12-24T15:18:59.201Z,99.53
2022-12-24T15:24:01.043Z,99.61
2022-12-24T15:29:20.026Z,99.46
2022-12-24T15:34:26.096Z,99.54
2022-12-24T15:39:27.840Z,99.56
2022-12-24T15:44:35.155Z,99.89
2022-12-24T15:49:36.941Z,99.97
2022-12-24T15:54:45.014Z,100.00
2022-12-24T15:59:51.812Z,100.00
2022-12-24T16:04:53.544Z,100.00
2022-12-24T16:10:14.895Z,100.00
2022-12-24T16:15:16.999Z,100.00
2022-12-24T16:20:22.058Z,100.00
2022-12-24T16:25:28.790Z,100.00
2022-12-24T16:30:30.552Z,100.00
2022-12-24T16:35:38.310Z,100.00
2022-12-24T16:40:43.604Z,100.00
2022-12-24T16:45:47.160Z,100.00
2022-12-24T16:50:50.342Z,100.00
2022-12-24T16:55:53.392Z,100.00
2022-12-24T17:00:56.028Z,100.00
2022-12-24T17:05:57.801Z,100.00
2022-12-24T17:10:59.466Z,100.00
2022-12-24T17:16:03.136Z,100.00
2022-12-24T17:21:06.976Z,100.00
2022-12-24T17:26:14.948Z,100.00
2022-12-24T17:31:17.135Z,100.00
2022-12-24T17:36:19.876Z,100.00
2022-12-24T17:41:22.178Z,100.00
2022-12-24T17:46:24.058Z,100.00
2022-12-24T17:51:26.040Z,100.00
2022-12-24T17:56:28.877Z,100.00
2022-12-24T18:01:30.967Z,100.00
2022-12-24T18:06:32.794Z,100.00
2022-12-24T18:11:36.807Z,100.00
2022-12-24T18:16:40.075Z,100.00
2022-12-24T18:21:41.922Z,100.00
2022-12-24T18:26:48.583Z,100.00
2022-12-24T18:31:50.499Z,100.00
2022-12-24T18:36:55.351Z,100.00
2022-12-24T18:41:57.603Z,100.00
2022-12-24T18:47:00.048Z,100.00
2022-12-24T18:52:07.231Z,100.00
2022-12-24T18:57:09.405Z,100.00
2022-12-24T19:02:11.289Z,100.00
2022-12-24T19:07:13.344Z,100.00
2022-12-24T19:12:15.760Z,100.00
2022-12-24T19:17:17.764Z,100.00
2022-12-24T19:22:19.693Z,100.00
2022-12-24T19:27:21.499Z,100.00
2022-12-24T19:32:23.233Z,100.00
2022-12-24T19:37:25.079Z,100.00
2022-12-24T19:42:26.783Z,100.00
2022-12-24T19:47:28.508Z,100.00
2022-12-24T19:52:30.475Z,100.00
2022-12-24T19:57:32.234Z,100.00
2022-12-24T20:02:34.648Z,100.00
2022-12-24T20:07:36.517Z,100.00
2022-12-24T20:12:38.273Z,100.00
2022-12-24T20:17:40.028Z,100.00
2022-12-24T20:22:41.725Z,100.00
2022-12-24T20:27:43.372Z,100.00
2022-12-24T20:32:45.062Z,100.00
2022-12-24T20:37:46.941Z,100.00
2022-12-24T20:42:52.816Z,100.00
2022-12-24T20:47:54.688Z,100.00
2022-12-24T20:52:56.424Z,100.00
2022-12-24T20:57:58.574Z,100.00
2022-12-24T21:03:01.137Z,100.00
2022-12-24T21:08:05.529Z,100.00
2022-12-24T21:13:07.300Z,100.00
2022-12-24T21:18:12.208Z,100.00
2022-12-24T21:23:13.969Z,100.00
2022-12-24T21:28:20.005Z,100.00
2022-12-24T21:33:21.857Z,100.00
2022-12-24T21:38:23.575Z,100.00
2022-12-24T21:43:25.285Z,100.00
2022-12-24T21:48:47.476Z,100.00
2022-12-24T21:54:08.219Z,100.00
2022-12-24T21:59:09.950Z,100.00
2022-12-24T22:04:11.641Z,100.00
2022-12-24T22:09:36.414Z,100.00
2022-12-24T22:14:39.089Z,100.00
2022-12-24T22:19:40.860Z,100.00
2022-12-24T22:24:42.735Z,100.00
2022-12-24T22:29:44.607Z,100.00
2022-12-24T22:34:46.587Z,100.00
2022-12-24T22:39:48.307Z,100.00
2022-12-24T22:44:50.179Z,100.00
2022-12-24T22:49:52.205Z,100.00
2022-12-24T22:54:54.025Z,100.00
2022-12-24T22:59:55.844Z,100.00
2022-12-24T23:04:57.663Z,100.00
2022-12-24T23:09:59.859Z,100.00
2022-12-24T23:15:01.611Z,100.00
2022-12-24T23:20:03.882Z,100.00
2022-12-24T23:25:05.814Z,100.00
2022-12-24T23:30:08.557Z,100.00
2022-12-24T23:35:10.267Z,100.00
2022-12-24T23:40:12.131Z,100.00
2022-12-24T23:45:13.974Z,100.00
2022-12-24T23:50:15.901Z,100.00
2022-12-24T23:55:17.746Z,100.00
